createdAt,value
2018-02-20T00:02:05.949Z,59.30
2018-02-20T00:04:32.168Z,59.10
2018-02-20T00:06:59.108Z,54.87
2018-02-20T00:09:26.068Z,59.07
2018-02-20T00:11:52.996Z,62.60
2018-02-20T00:14:19.957Z,51.20
2018-02-20T00:16:46.892Z,62.30
2018-02-20T00:19:13.891Z,53.57
2018-02-20T00:21:40.463Z,58.77
2018-02-20T00:24:06.685Z,56.17
2018-02-20T00:26:32.891Z,58.10
2018-02-20T00:28:59.125Z,54.80
2018-02-20T00:31:25.308Z,58.67
2018-02-20T00:33:51.524Z,68.00
2018-02-20T00:36:18.512Z,58.23
2018-02-20T00:38:44.732Z,54.70
2018-02-20T00:41:10.920Z,57.57
2018-02-20T00:43:37.888Z,66.50
2018-02-20T00:46:04.072Z,55.13
2018-02-20T00:48:31.042Z,63.10
2018-02-20T00:50:57.975Z,47.47
2018-02-20T00:53:24.197Z,53.00
2018-02-20T00:55:50.844Z,63.63
2018-02-20T00:58:17.069Z,63.40
2018-02-20T01:00:43.528Z,54.67
2018-02-20T01:03:10.485Z,52.20
2018-02-20T01:05:36.671Z,52.87
2018-02-20T01:08:03.635Z,56.47
2018-02-20T01:10:29.853Z,48.67
2018-02-20T01:12:56.068Z,59.17
2018-02-20T01:15:22.251Z,59.93
2018-02-20T01:17:48.495Z,65.13
2018-02-20T01:20:14.683Z,61.90
2018-02-20T01:22:41.608Z,57.13
2018-02-20T01:25:07.936Z,62.23
2018-02-20T01:27:34.156Z,67.23
2018-02-20T01:30:00.344Z,59.37
2018-02-20T01:32:26.537Z,72.03
2018-02-20T01:34:52.753Z,56.87
2018-02-20T01:37:19.410Z,60.47
2018-02-20T01:39:46.368Z,54.10
2018-02-20T01:42:13.302Z,51.53
2018-02-20T01:44:40.270Z,66.47
2018-02-20T01:47:06.455Z,55.10
2018-02-20T01:49:32.677Z,57.07
2018-02-20T01:51:58.877Z,66.77
2018-02-20T01:54:25.105Z,57.87
2018-02-20T01:56:51.294Z,55.40
2018-02-20T01:59:18.259Z,59.87
2018-02-20T02:01:44.456Z,60.07
2018-02-20T02:04:10.864Z,56.03
2018-02-20T02:06:37.073Z,40.50
2018-02-20T02:09:03.319Z,62.50
2018-02-20T02:11:29.546Z,65.13
2018-02-20T02:13:56.060Z,52.30
2018-02-20T02:16:22.834Z,71.60
2018-02-20T02:18:49.834Z,72.73
2018-02-20T02:21:16.143Z,59.43
2018-02-20T02:23:42.363Z,67.87
2018-02-20T02:26:09.320Z,62.70
2018-02-20T02:28:35.540Z,66.27
2018-02-20T02:31:01.824Z,57.00
2018-02-20T02:33:28.013Z,62.03
2018-02-20T02:35:54.968Z,64.77
2018-02-20T02:38:21.169Z,73.90
2018-02-20T02:40:47.396Z,56.17
2018-02-20T02:43:14.328Z,63.27
2018-02-20T02:45:40.549Z,64.17
2018-02-20T02:48:06.746Z,79.07
2018-02-20T02:50:32.967Z,62.97
2018-02-20T02:52:59.160Z,63.13
2018-02-20T02:55:25.380Z,65.67
2018-02-20T02:57:51.572Z,70.73
2018-02-20T03:00:17.802Z,59.00
2018-02-20T03:02:43.994Z,59.80
2018-02-20T03:05:10.952Z,59.93
2018-02-20T03:07:37.144Z,67.10
2018-02-20T03:10:03.448Z,67.67
2018-02-20T03:12:29.635Z,68.77
2018-02-20T03:14:56.610Z,63.73
2018-02-20T03:17:22.803Z,66.37
2018-02-20T03:19:49.796Z,58.07
2018-02-20T03:22:15.988Z,61.40
2018-02-20T03:24:42.216Z,67.27
2018-02-20T03:27:08.403Z,52.73
2018-02-20T03:29:34.624Z,65.37
2018-02-20T03:32:00.808Z,63.63
2018-02-20T03:34:27.028Z,68.70
2018-02-20T03:36:53.956Z,57.33
2018-02-20T03:39:20.921Z,52.83
2018-02-20T03:41:47.118Z,61.03
2018-02-20T03:44:14.060Z,67.53
2018-02-20T03:46:40.288Z,72.97
2018-02-20T03:49:06.479Z,55.07
2018-02-20T03:51:32.696Z,64.33
2018-02-20T03:53:58.888Z,74.70
2018-02-20T03:56:25.114Z,71.87
2018-02-20T03:58:51.304Z,60.37
2018-02-20T04:01:17.524Z,58.03
2018-02-20T04:03:43.780Z,64.77
2018-02-20T04:06:10.001Z,61.80
2018-02-20T04:08:36.205Z,43.03
2018-02-20T04:11:02.432Z,64.33
2018-02-20T04:13:28.621Z,64.77
2018-02-20T04:15:54.925Z,59.60
2018-02-20T04:18:21.536Z,64.37
2018-02-20T04:20:47.766Z,62.83
2018-02-20T04:23:14.057Z,56.37
2018-02-20T04:25:41.016Z,55.43
2018-02-20T04:28:07.945Z,64.87
2018-02-20T04:30:34.196Z,73.63
2018-02-20T04:33:00.380Z,79.00
2018-02-20T04:35:26.796Z,53.73
2018-02-20T04:37:52.990Z,55.90
2018-02-20T04:40:19.176Z,48.07
2018-02-20T04:42:45.409Z,63.80
2018-02-20T04:45:11.600Z,66.87
2018-02-20T04:47:37.811Z,61.57
2018-02-20T04:50:04.001Z,62.47
2018-02-20T04:52:30.224Z,65.20
2018-02-20T04:54:56.420Z,53.90
2018-02-20T04:57:22.636Z,56.53
2018-02-20T04:59:49.700Z,61.57
2018-02-20T05:02:15.924Z,59.80
2018-02-20T05:04:42.131Z,67.83
2018-02-20T05:07:08.399Z,66.00
2018-02-20T05:09:34.588Z,62.53
2018-02-20T05:12:00.811Z,74.63
2018-02-20T05:14:27.000Z,63.63
2018-02-20T05:16:53.512Z,77.63
2018-02-20T05:19:19.762Z,64.77
2018-02-20T05:21:45.951Z,60.73
2018-02-20T05:24:12.168Z,72.80
2018-02-20T05:26:39.023Z,49.97
2018-02-20T05:29:05.217Z,62.77
2018-02-20T05:31:32.152Z,62.43
2018-02-20T05:33:59.116Z,67.20
2018-02-20T05:36:26.060Z,72.30
2018-02-20T05:38:53.024Z,58.23
2018-02-20T05:41:19.221Z,60.27
2018-02-20T05:43:46.197Z,77.90
2018-02-20T05:46:12.387Z,60.93
2018-02-20T05:48:38.607Z,60.90
2018-02-20T05:51:04.801Z,62.50
2018-02-20T05:53:31.057Z,57.10
2018-02-20T05:55:57.256Z,61.23
2018-02-20T05:58:23.475Z,58.60
2018-02-20T06:00:49.665Z,80.50
2018-02-20T06:03:15.896Z,69.20
2018-02-20T06:05:42.828Z,67.97
2018-02-20T06:08:09.062Z,61.03
2018-02-20T06:10:35.260Z,57.80
2018-02-20T06:13:01.472Z,59.23
2018-02-20T06:15:27.691Z,58.33
2018-02-20T06:17:53.896Z,63.73
2018-02-20T06:20:20.896Z,64.63
2018-02-20T06:22:47.088Z,56.37
2018-02-20T06:25:13.308Z,54.53
2018-02-20T06:27:40.229Z,48.43
2018-02-20T06:30:06.448Z,66.10
2018-02-20T06:32:32.631Z,70.00
2018-02-20T06:34:58.855Z,56.23
2018-02-20T06:37:25.052Z,76.57
2018-02-20T06:39:52.036Z,62.10
2018-02-20T06:42:18.228Z,56.17
2018-02-20T06:44:45.156Z,59.40
2018-02-20T06:47:11.372Z,57.67
2018-02-20T06:49:37.559Z,63.27
2018-02-20T06:52:03.775Z,58.30
2018-02-20T06:54:30.712Z,60.87
2018-02-20T06:56:57.668Z,53.07
2018-02-20T06:59:23.869Z,61.00
2018-02-20T07:01:50.088Z,57.00
2018-02-20T07:04:16.275Z,50.40
2018-02-20T07:06:42.556Z,66.23
2018-02-20T07:09:08.740Z,65.13
2018-02-20T07:11:34.961Z,60.30
2018-02-20T07:14:01.156Z,55.70
2018-02-20T07:16:28.140Z,72.20
2018-02-20T07:18:54.360Z,54.27
2018-02-20T07:21:20.576Z,61.73
2018-02-20T07:23:46.764Z,52.03
2018-02-20T07:26:12.980Z,50.97
2018-02-20T07:28:39.167Z,50.43
2018-02-20T07:31:05.380Z,55.30
2018-02-20T07:33:32.313Z,58.43
2018-02-20T07:35:59.252Z,54.40
2018-02-20T07:38:25.514Z,54.60
2018-02-20T07:40:52.457Z,52.07
2018-02-20T07:43:18.649Z,57.00
2018-02-20T07:45:44.868Z,54.33
2018-02-20T07:48:11.060Z,51.50
2018-02-20T07:50:37.309Z,50.80
2018-02-20T07:53:03.516Z,56.93
2018-02-20T07:55:29.712Z,54.37
2018-02-20T07:57:56.671Z,49.17
2018-02-20T08:00:22.884Z,57.03
2018-02-20T08:02:49.840Z,54.57
2018-02-20T08:05:16.769Z,54.03
2018-02-20T08:07:42.988Z,58.70
2018-02-20T08:10:09.189Z,56.63
2018-02-20T08:12:35.480Z,53.00
2018-02-20T08:15:01.672Z,50.03
2018-02-20T08:17:28.685Z,55.30
2018-02-20T08:19:54.873Z,52.70
2018-02-20T08:22:21.827Z,56.93
2018-02-20T08:24:48.020Z,59.47
2018-02-20T08:27:14.245Z,54.23
2018-02-20T08:29:40.495Z,53.33
2018-02-20T08:32:06.692Z,50.50
2018-02-20T08:34:32.880Z,50.23
2018-02-20T08:36:59.092Z,49.83
2018-02-20T08:39:26.021Z,49.10
2018-02-20T08:41:52.276Z,48.63
2018-02-20T08:44:19.204Z,51.50
2018-02-20T08:46:46.133Z,55.67
2018-02-20T08:49:12.527Z,59.53
2018-02-20T08:51:38.860Z,38.97
2018-02-20T08:54:05.114Z,59.60
2018-02-20T08:56:31.296Z,54.50
2018-02-20T08:58:57.516Z,55.13
2018-02-20T09:01:24.440Z,75.20
2018-02-20T09:03:50.668Z,72.10
2018-02-20T09:06:16.865Z,75.43
2018-02-20T09:08:43.085Z,70.67
2018-02-20T09:11:09.268Z,68.87
2018-02-20T09:13:36.288Z,67.10
2018-02-20T09:16:02.476Z,67.67
2018-02-20T09:18:28.692Z,71.13
2018-02-20T09:20:54.914Z,69.83
2018-02-20T09:23:21.135Z,67.27
2018-02-20T09:25:48.072Z,77.60
2018-02-20T09:28:15.033Z,75.90
2018-02-20T09:30:41.956Z,83.20
2018-02-20T09:33:08.927Z,70.90
2018-02-20T09:35:35.125Z,82.03
2018-02-20T09:38:01.372Z,70.67
2018-02-20T09:40:28.300Z,79.90
2018-02-20T09:42:54.543Z,71.70
2018-02-20T09:45:21.467Z,71.10
2018-02-20T09:47:47.663Z,55.87
2018-02-20T09:50:13.953Z,90.50
2018-02-20T09:52:40.175Z,84.43
2018-02-20T09:55:07.137Z,95.03
2018-02-20T09:57:33.384Z,96.83
2018-02-20T09:59:59.597Z,91.90
2018-02-20T10:02:26.524Z,83.67
2018-02-20T10:04:53.477Z,77.60
2018-02-20T10:07:20.431Z,87.13
2018-02-20T10:09:47.392Z,80.07
2018-02-20T10:12:13.609Z,103.77
2018-02-20T10:14:40.538Z,88.57
2018-02-20T10:17:07.495Z,99.20
2018-02-20T10:19:34.512Z,89.07
2018-02-20T10:22:00.728Z,97.00
2018-02-20T10:24:26.924Z,91.93
2018-02-20T10:26:53.141Z,83.73
2018-02-20T10:29:19.336Z,82.53
2018-02-20T10:31:45.548Z,94.97
2018-02-20T10:34:11.749Z,86.20
2018-02-20T10:36:37.976Z,90.93
2018-02-20T10:39:04.212Z,79.10
2018-02-20T10:41:30.404Z,86.47
2018-02-20T10:43:57.352Z,91.73
2018-02-20T10:46:23.548Z,86.23
2018-02-20T10:48:49.764Z,86.20
2018-02-20T10:51:15.963Z,100.47
2018-02-20T10:53:42.179Z,78.23
2018-02-20T10:56:08.438Z,87.17
2018-02-20T10:58:34.656Z,94.50
2018-02-20T11:01:00.848Z,87.80
2018-02-20T11:03:27.807Z,72.57
2018-02-20T11:05:54.064Z,86.97
2018-02-20T11:08:20.314Z,79.20
2018-02-20T11:10:46.509Z,95.00
2018-02-20T11:13:12.756Z,92.40
2018-02-20T11:15:38.945Z,62.63
2018-02-20T11:18:05.910Z,89.70
2018-02-20T11:20:32.133Z,105.70
2018-02-20T11:22:58.355Z,92.03
2018-02-20T11:25:24.540Z,75.40
2018-02-20T11:27:50.752Z,84.20
2018-02-20T11:30:16.936Z,90.80
2018-02-20T11:32:43.159Z,90.97
2018-02-20T11:35:10.088Z,90.90
2018-02-20T11:37:36.308Z,122.13
2018-02-20T11:40:02.508Z,105.47
2018-02-20T11:42:28.725Z,108.10
2018-02-20T11:44:55.155Z,89.23
2018-02-20T11:47:21.376Z,101.33
2018-02-20T11:49:47.556Z,116.90
2018-02-20T11:52:13.773Z,100.27
2018-02-20T11:54:39.961Z,131.17
2018-02-20T11:57:06.194Z,121.30
2018-02-20T11:59:32.454Z,107.50
2018-02-20T12:01:58.680Z,101.60
2018-02-20T12:04:24.877Z,100.03
2018-02-20T12:06:51.096Z,97.47
2018-02-20T12:09:17.297Z,111.70
2018-02-20T12:11:43.780Z,112.63
2018-02-20T12:14:10.001Z,106.33
2018-02-20T12:16:36.191Z,102.43
2018-02-20T12:19:03.204Z,101.43
2018-02-20T12:21:29.386Z,95.30
2018-02-20T12:23:56.344Z,119.23
2018-02-20T12:26:22.545Z,107.07
2018-02-20T12:28:49.500Z,110.10
2018-02-20T12:31:16.424Z,98.00
2018-02-20T12:33:42.635Z,74.90
2018-02-20T12:36:08.820Z,86.27
2018-02-20T12:38:35.000Z,91.50
2018-02-20T12:41:01.217Z,93.50
2018-02-20T12:43:27.404Z,85.23
2018-02-20T12:45:53.620Z,75.57
2018-02-20T12:48:20.553Z,86.83
2018-02-20T12:50:47.517Z,75.63
2018-02-20T12:53:13.707Z,75.27
2018-02-20T12:55:39.930Z,71.03
2018-02-20T12:58:06.129Z,75.00
2018-02-20T13:00:32.335Z,72.90
2018-02-20T13:02:58.537Z,68.13
2018-02-20T13:05:25.500Z,71.67
2018-02-20T13:07:51.721Z,76.63
2018-02-20T13:10:18.660Z,76.73
2018-02-20T13:12:44.903Z,63.00
2018-02-20T13:15:11.836Z,76.53
2018-02-20T13:17:38.796Z,55.97
2018-02-20T13:20:05.748Z,67.10
2018-02-20T13:22:31.968Z,82.70
2018-02-20T13:24:58.911Z,66.50
2018-02-20T13:27:25.883Z,71.47
2018-02-20T13:29:52.073Z,68.13
2018-02-20T13:32:18.264Z,57.97
2018-02-20T13:34:44.481Z,70.10
2018-02-20T13:37:10.663Z,80.20
2018-02-20T13:39:37.633Z,60.57
2018-02-20T13:42:03.823Z,74.63
2018-02-20T13:44:30.049Z,64.10
2018-02-20T13:46:56.238Z,68.10
2018-02-20T13:49:22.520Z,78.97
2018-02-20T13:51:49.452Z,68.80
2018-02-20T13:54:15.677Z,77.47
2018-02-20T13:56:41.883Z,62.40
2018-02-20T13:59:08.113Z,71.30
2018-02-20T14:01:34.300Z,72.20
2018-02-20T14:04:01.264Z,67.00
2018-02-20T14:06:27.456Z,82.47
2018-02-20T14:08:53.684Z,70.67
2018-02-20T14:11:19.876Z,73.87
2018-02-20T14:13:46.092Z,63.97
2018-02-20T14:16:12.324Z,66.03
2018-02-20T14:18:38.560Z,81.63
2018-02-20T14:21:04.836Z,72.57
2018-02-20T14:23:31.764Z,77.00
2018-02-20T14:25:57.980Z,81.87
2018-02-20T14:28:24.201Z,75.50
2018-02-20T14:30:50.394Z,83.50
2018-02-20T14:33:16.584Z,79.40
2018-02-20T14:35:42.800Z,79.50
2018-02-20T14:38:08.997Z,89.47
2018-02-20T14:40:35.213Z,75.70
2018-02-20T14:43:01.404Z,77.10
2018-02-20T14:45:27.621Z,91.50
2018-02-20T14:47:53.811Z,82.43
2018-02-20T14:50:20.024Z,85.53
2018-02-20T14:52:46.209Z,80.77
2018-02-20T14:55:12.433Z,75.03
2018-02-20T14:57:38.620Z,76.93
2018-02-20T15:00:04.840Z,75.63
2018-02-20T15:02:31.020Z,82.57
2018-02-20T15:04:57.316Z,80.10
2018-02-20T15:07:23.528Z,82.00
2018-02-20T15:09:49.714Z,77.20
2018-02-20T15:12:15.928Z,77.57
2018-02-20T15:14:42.116Z,91.97
2018-02-20T15:17:08.336Z,85.87
2018-02-20T15:19:34.559Z,87.70
2018-02-20T15:22:00.783Z,81.50
2018-02-20T15:24:27.708Z,87.30
2018-02-20T15:26:53.923Z,78.50
2018-02-20T15:29:20.117Z,88.23
2018-02-20T15:31:46.348Z,84.23
2018-02-20T15:34:12.544Z,84.50
2018-02-20T15:36:39.505Z,78.30
2018-02-20T15:39:05.698Z,73.33
2018-02-20T15:41:33.397Z,87.03
2018-02-20T15:43:59.588Z,86.50
2018-02-20T15:46:25.864Z,73.77
2018-02-20T15:48:52.060Z,69.70
2018-02-20T15:51:19.016Z,78.07
2018-02-20T15:53:45.940Z,85.50
2018-02-20T15:56:12.158Z,85.60
2018-02-20T15:58:38.404Z,82.40
2018-02-20T16:01:05.356Z,82.07
2018-02-20T16:03:32.289Z,73.77
2018-02-20T16:06:00.313Z,91.37
2018-02-20T16:08:26.538Z,89.33
2018-02-20T16:10:52.761Z,82.83
2018-02-20T16:13:18.957Z,76.23
2018-02-20T16:15:45.941Z,80.70
2018-02-20T16:18:12.141Z,83.00
2018-02-20T16:20:39.137Z,79.10
2018-02-20T16:23:05.320Z,89.90
2018-02-20T16:25:32.267Z,87.90
2018-02-20T16:27:59.228Z,92.40
2018-02-20T16:30:25.423Z,78.97
2018-02-20T16:32:52.416Z,90.27
2018-02-20T16:35:18.596Z,81.10
2018-02-20T16:37:44.820Z,83.77
2018-02-20T16:40:11.772Z,108.33
2018-02-20T16:42:38.411Z,83.07
2018-02-20T16:45:05.340Z,89.80
2018-02-20T16:47:31.541Z,82.37
2018-02-20T16:49:57.765Z,91.37
2018-02-20T16:52:23.972Z,89.50
2018-02-20T16:54:50.184Z,83.03
2018-02-20T16:57:17.116Z,85.80
2018-02-20T16:59:43.332Z,90.10
2018-02-20T17:02:09.590Z,96.70
2018-02-20T17:04:36.552Z,79.50
2018-02-20T17:07:03.004Z,85.80
2018-02-20T17:09:29.236Z,85.93
2018-02-20T17:11:55.444Z,109.60
2018-02-20T17:14:21.627Z,91.63
2018-02-20T17:16:48.588Z,75.03
2018-02-20T17:19:15.516Z,87.93
2018-02-20T17:21:41.805Z,82.23
2018-02-20T17:24:08.024Z,90.30
2018-02-20T17:26:34.245Z,79.93
2018-02-20T17:29:00.437Z,77.83
2018-02-20T17:31:26.658Z,112.40
2018-02-20T17:33:52.919Z,99.37
2018-02-20T17:36:19.873Z,114.33
2018-02-20T17:38:46.808Z,107.13
2018-02-20T17:41:13.776Z,92.20
2018-02-20T17:43:39.966Z,180.83
2018-02-20T17:46:06.190Z,108.40
2018-02-20T17:48:32.380Z,109.97
2018-02-20T17:50:58.604Z,102.37
2018-02-20T17:53:24.791Z,127.67
2018-02-20T17:55:51.820Z,265.87
2018-02-20T17:58:18.016Z,254.43
2018-02-20T18:00:44.253Z,124.67
2018-02-20T18:03:10.445Z,197.60
2018-02-20T18:05:37.008Z,157.40
2018-02-20T18:08:03.204Z,182.83
2018-02-20T18:10:30.165Z,160.37
2018-02-20T18:12:56.388Z,120.07
2018-02-20T18:15:22.600Z,131.67
2018-02-20T18:17:49.536Z,111.10
2018-02-20T18:20:15.785Z,134.87
2018-02-20T18:22:42.771Z,120.83
2018-02-20T18:25:08.961Z,126.33
2018-02-20T18:27:35.889Z,118.73
2018-02-20T18:30:02.857Z,99.20
2018-02-20T18:32:29.044Z,128.90
2018-02-20T18:34:55.321Z,114.33
2018-02-20T18:37:21.519Z,127.20
2018-02-20T18:39:47.740Z,132.17
2018-02-20T18:42:13.932Z,106.63
2018-02-20T18:44:40.212Z,125.67
2018-02-20T18:47:07.140Z,124.23
2018-02-20T18:49:33.385Z,119.43
2018-02-20T18:51:59.572Z,111.13
2018-02-20T18:54:25.792Z,113.40
2018-02-20T18:56:51.981Z,128.07
2018-02-20T18:59:18.941Z,109.03
2018-02-20T19:01:45.499Z,103.57
2018-02-20T19:04:11.721Z,116.97
2018-02-20T19:06:37.974Z,118.70
2018-02-20T19:09:04.235Z,122.07
2018-02-20T19:11:30.474Z,102.63
2018-02-20T19:13:57.431Z,125.10
2018-02-20T19:16:24.364Z,115.30
2018-02-20T19:18:51.323Z,114.27
2018-02-20T19:21:18.284Z,112.87
2018-02-20T19:23:44.568Z,120.30
2018-02-20T19:26:10.775Z,128.50
2018-02-20T19:28:37.000Z,113.03
2018-02-20T19:31:03.228Z,124.87
2018-02-20T19:33:29.461Z,88.80
2018-02-20T19:35:55.683Z,87.73
2018-02-20T19:38:21.868Z,133.83
2018-02-20T19:40:48.840Z,107.07
2018-02-20T19:43:15.037Z,145.10
2018-02-20T19:45:41.996Z,120.87
2018-02-20T19:48:08.924Z,100.37
2018-02-20T19:50:35.149Z,116.07
2018-02-20T19:53:01.337Z,91.80
2018-02-20T19:55:27.556Z,100.67
2018-02-20T19:57:53.784Z,89.70
2018-02-20T20:00:20.003Z,123.53
2018-02-20T20:02:46.252Z,107.47
2018-02-20T20:05:12.473Z,100.10
2018-02-20T20:07:38.669Z,111.17
2018-02-20T20:10:05.632Z,110.40
2018-02-20T20:12:31.819Z,87.27
2018-02-20T20:14:58.159Z,105.50
2018-02-20T20:17:24.357Z,99.20
2018-02-20T20:19:50.550Z,82.00
2018-02-20T20:22:16.808Z,94.50
2018-02-20T20:24:43.005Z,103.63
2018-02-20T20:27:09.217Z,84.07
2018-02-20T20:29:36.147Z,89.47
2018-02-20T20:32:02.373Z,100.30
2018-02-20T20:34:30.052Z,102.40
2018-02-20T20:36:57.016Z,82.23
2018-02-20T20:39:23.200Z,104.63
2018-02-20T20:41:49.412Z,65.47
2018-02-20T20:44:16.544Z,88.07
2018-02-20T20:46:42.760Z,80.57
2018-02-20T20:49:08.957Z,95.47
2018-02-20T20:51:35.922Z,82.93
2018-02-20T20:54:02.858Z,79.53
2018-02-20T20:56:29.821Z,54.90
2018-02-20T20:58:56.004Z,82.67
2018-02-20T21:01:22.252Z,70.50
2018-02-20T21:03:49.184Z,81.27
2018-02-20T21:06:15.363Z,77.87
2018-02-20T21:08:41.584Z,69.13
2018-02-20T21:11:07.764Z,84.20
2018-02-20T21:13:33.981Z,78.87
2018-02-20T21:16:00.173Z,68.33
2018-02-20T21:18:26.396Z,75.27
2018-02-20T21:20:52.673Z,60.70
2018-02-20T21:23:18.884Z,78.50
2018-02-20T21:25:45.077Z,68.70
2018-02-20T21:28:11.296Z,70.17
2018-02-20T21:30:38.232Z,65.87
2018-02-20T21:33:05.192Z,71.00
2018-02-20T21:35:32.128Z,65.57
2018-02-20T21:37:59.092Z,69.13
2018-02-20T21:40:25.288Z,66.67
2018-02-20T21:42:51.504Z,66.87
2018-02-20T21:45:17.701Z,64.70
2018-02-20T21:47:44.288Z,68.43
2018-02-20T21:50:10.479Z,56.40
2018-02-20T21:52:36.697Z,62.77
2018-02-20T21:55:02.950Z,61.87
2018-02-20T21:57:29.160Z,55.23
2018-02-20T21:59:55.420Z,63.20
2018-02-20T22:02:21.652Z,62.20
2018-02-20T22:04:48.581Z,56.70
2018-02-20T22:07:14.792Z,59.43
2018-02-20T22:09:40.972Z,47.20
2018-02-20T22:12:07.936Z,59.57
2018-02-20T22:14:34.124Z,61.43
2018-02-20T22:17:01.829Z,49.67
2018-02-20T22:19:28.020Z,60.93
2018-02-20T22:21:54.273Z,57.13
2018-02-20T22:24:21.207Z,42.17
2018-02-20T22:26:47.433Z,65.53
2018-02-20T22:29:13.625Z,51.13
2018-02-20T22:31:39.849Z,47.30
2018-02-20T22:34:06.040Z,64.63
2018-02-20T22:36:33.028Z,60.37
2018-02-20T22:38:59.229Z,58.70
2018-02-20T22:41:32.349Z,56.07
2018-02-20T22:43:58.573Z,58.47
2018-02-20T22:46:24.772Z,55.63
2018-02-20T22:48:51.000Z,60.33
2018-02-20T22:51:17.194Z,59.40
2018-02-20T22:53:43.416Z,57.80
2018-02-20T22:56:09.603Z,63.93
2018-02-20T22:58:35.815Z,60.60
2018-02-20T23:01:02.001Z,60.27
2018-02-20T23:03:28.962Z,59.83
2018-02-20T23:05:55.153Z,58.67
2018-02-20T23:08:21.372Z,49.67
2018-02-20T23:10:47.564Z,65.00
2018-02-20T23:13:14.524Z,51.60
2018-02-20T23:15:40.724Z,46.60
2018-02-20T23:18:06.940Z,63.27
2018-02-20T23:20:33.155Z,51.67
2018-02-20T23:22:59.384Z,57.80
2018-02-20T23:25:25.637Z,50.43
2018-02-20T23:27:51.837Z,49.67
2018-02-20T23:30:18.066Z,54.67
2018-02-20T23:32:44.281Z,55.17
2018-02-20T23:35:10.482Z,51.47
2018-02-20T23:37:36.683Z,60.20
2018-02-20T23:40:03.644Z,56.80
2018-02-20T23:42:30.572Z,54.60
2018-02-20T23:44:56.788Z,51.80
2018-02-20T23:47:23.719Z,52.53
2018-02-20T23:49:49.940Z,51.40
2018-02-20T23:52:16.129Z,54.30
2018-02-20T23:54:43.106Z,40.50
2018-02-20T23:57:09.288Z,56.23
2018-02-20T23:59:36.479Z,41.33
